DEPPU ENSO-ENSO
Flight info
| Callsign | DEPPU |
|---|---|
| Flight time | 0h 9m |
| Altitude | 9500 |
| Route | VFR |
| Aircraft | BE36/L-S/S |
Departure
| Time | 2026-04-28 08:38 |
|---|---|
| Airport | Stord Airport, Sørstokken (ENSO) |
Arrival
| Time | 2026-04-28 08:48 |
|---|---|
| Airport | Stord Airport, Sørstokken (ENSO) |
| Time | Latitude | Longitude | Altitude | Speed | Heading |
|---|---|---|---|---|---|
| 2026-04-28 08:35 | 59.79313 | 5.34132 | 161 ft | 0 kts | 6° |
| 2026-04-28 08:35 | 59.79316 | 5.34135 | 160 ft | 3 kts | 41° |
| 2026-04-28 08:35 | 59.79286 | 5.34167 | 161 ft | 9 kts | 167° |
| 2026-04-28 08:35 | 59.79215 | 5.34146 | 161 ft | 14 kts | 229° |
| 2026-04-28 08:36 | 59.79120 | 5.34184 | 161 ft | 18 kts | 141° |
| 2026-04-28 08:36 | 59.79008 | 5.34345 | 155 ft | 22 kts | 144° |
| 2026-04-28 08:36 | 59.78881 | 5.34520 | 154 ft | 23 kts | 147° |
| 2026-04-28 08:36 | 59.78756 | 5.34704 | 158 ft | 22 kts | 141° |
| 2026-04-28 08:37 | 59.78668 | 5.34827 | 159 ft | 7 kts | 281° |
| 2026-04-28 08:37 | 59.78677 | 5.34808 | 159 ft | 0 kts | 320° |
| 2026-04-28 08:38 | 59.78776 | 5.34667 | 158 ft | 54 kts | 324° |
| 2026-04-28 08:38 | 59.79222 | 5.34031 | 276 ft | 97 kts | 325° |
| 2026-04-28 08:38 | 59.79814 | 5.33188 | 663 ft | 109 kts | 324° |
| 2026-04-28 08:38 | 59.80467 | 5.32257 | 945 ft | 128 kts | 326° |
| 2026-04-28 08:39 | 59.81228 | 5.31215 | 1169 ft | 141 kts | 324° |
| 2026-04-28 08:39 | 59.82107 | 5.30000 | 1144 ft | 163 kts | 325° |
| 2026-04-28 08:39 | 59.83073 | 5.28684 | 1144 ft | 173 kts | 325° |
| 2026-04-28 08:39 | 59.84077 | 5.27340 | 1146 ft | 172 kts | 326° |
| 2026-04-28 08:40 | 59.85058 | 5.26007 | 1191 ft | 169 kts | 326° |
| 2026-04-28 08:40 | 59.86017 | 5.24679 | 1180 ft | 167 kts | 326° |
| 2026-04-28 08:40 | 59.86985 | 5.23412 | 1176 ft | 166 kts | 335° |
| 2026-04-28 08:40 | 59.88114 | 5.23383 | 1162 ft | 168 kts | 21° |
| 2026-04-28 08:41 | 59.88915 | 5.25005 | 1169 ft | 173 kts | 66° |
| 2026-04-28 08:41 | 59.88928 | 5.27370 | 1141 ft | 177 kts | 109° |
| 2026-04-28 08:41 | 59.88138 | 5.29205 | 1129 ft | 177 kts | 144° |
| 2026-04-28 08:41 | 59.87121 | 5.30580 | 1131 ft | 176 kts | 148° |
| 2026-04-28 08:42 | 59.86085 | 5.31854 | 1108 ft | 173 kts | 149° |
| 2026-04-28 08:42 | 59.85052 | 5.33078 | 1098 ft | 172 kts | 150° |
| 2026-04-28 08:42 | 59.84028 | 5.34274 | 1036 ft | 170 kts | 150° |
| 2026-04-28 08:42 | 59.83018 | 5.35447 | 973 ft | 167 kts | 150° |
| 2026-04-28 08:43 | 59.82021 | 5.36598 | 961 ft | 165 kts | 150° |
| 2026-04-28 08:43 | 59.81029 | 5.37747 | 951 ft | 164 kts | 150° |
| 2026-04-28 08:43 | 59.80045 | 5.38874 | 925 ft | 163 kts | 150° |
| 2026-04-28 08:43 | 59.79077 | 5.39982 | 873 ft | 163 kts | 150° |
| 2026-04-28 08:44 | 59.78098 | 5.41106 | 853 ft | 163 kts | 150° |
| 2026-04-28 08:44 | 59.77117 | 5.42227 | 837 ft | 163 kts | 150° |
| 2026-04-28 08:44 | 59.76134 | 5.43360 | 798 ft | 162 kts | 150° |
| 2026-04-28 08:44 | 59.75157 | 5.44492 | 782 ft | 163 kts | 150° |
| 2026-04-28 08:45 | 59.74182 | 5.45619 | 754 ft | 162 kts | 150° |
| 2026-04-28 08:45 | 59.73150 | 5.46437 | 702 ft | 161 kts | 179° |
| 2026-04-28 08:45 | 59.72140 | 5.45651 | 653 ft | 159 kts | 227° |
| 2026-04-28 08:45 | 59.71767 | 5.43678 | 613 ft | 156 kts | 275° |
| 2026-04-28 08:46 | 59.72278 | 5.41855 | 558 ft | 156 kts | 322° |
| 2026-04-28 08:46 | 59.73219 | 5.40779 | 513 ft | 156 kts | 335° |
| 2026-04-28 08:46 | 59.74230 | 5.39967 | 486 ft | 156 kts | 339° |
| 2026-04-28 08:46 | 59.75250 | 5.39226 | 458 ft | 156 kts | 340° |
| 2026-04-28 08:47 | 59.76219 | 5.38287 | 435 ft | 155 kts | 320° |
| 2026-04-28 08:47 | 59.77031 | 5.36975 | 490 ft | 146 kts | 329° |
| 2026-04-28 08:47 | 59.77814 | 5.36004 | 442 ft | 120 kts | 324° |
| 2026-04-28 08:47 | 59.78432 | 5.35114 | 250 ft | 102 kts | 329° |
| 2026-04-28 08:48 | 59.78933 | 5.34446 | 157 ft | 67 kts | 325° |
| 2026-04-28 08:48 | 59.79141 | 5.34155 | 161 ft | 44 kts | 326° |
| 2026-04-28 08:48 | 59.79226 | 5.34172 | 161 ft | 12 kts | 54° |
| 2026-04-28 08:48 | 59.79302 | 5.34138 | 161 ft | 13 kts | 328° |
| 2026-04-28 08:49 | 59.79311 | 5.34125 | 161 ft | 0 kts | 323° |